createdAt,value
2023-02-18T00:04:54.966Z,101273.38
2023-02-18T00:09:56.376Z,101283.81
2023-02-18T00:14:58.285Z,101269.06
2023-02-18T00:19:59.975Z,101266.50
2023-02-18T00:25:01.634Z,101273.78
2023-02-18T00:30:03.650Z,101282.56
2023-02-18T00:35:05.283Z,101287.97
2023-02-18T00:40:07.569Z,101289.00
2023-02-18T00:45:12.331Z,101291.34
2023-02-18T00:50:13.830Z,101280.56
2023-02-18T00:55:15.461Z,101281.94
2023-02-18T01:00:17.096Z,101293.53
2023-02-18T01:05:18.527Z,101288.16
2023-02-18T01:10:20.434Z,101278.53
2023-02-18T01:15:22.741Z,101289.50
2023-02-18T01:20:24.324Z,101282.34
2023-02-18T01:25:25.887Z,101281.59
2023-02-18T01:30:27.823Z,101261.44
2023-02-18T01:35:29.605Z,101254.47
2023-02-18T01:40:31.022Z,101251.19
2023-02-18T01:45:35.476Z,101244.72
2023-02-18T01:50:47.247Z,101245.28
2023-02-18T01:55:49.382Z,101234.59
2023-02-18T02:00:50.957Z,101232.31
2023-02-18T02:05:52.531Z,101221.09
2023-02-18T02:11:08.627Z,101209.56
2023-02-18T02:16:25.013Z,101204.63
2023-02-18T02:21:54.786Z,101199.97
2023-02-18T02:27:02.164Z,101195.84
2023-02-18T02:32:21.556Z,101191.44
2023-02-18T02:37:34.099Z,101191.63
2023-02-18T02:42:56.938Z,101183.59
2023-02-18T02:48:33.046Z,101178.97
2023-02-18T02:53:37.160Z,101185.41
2023-02-18T02:58:38.641Z,101174.53
2023-02-18T03:04:10.103Z,101179.81
2023-02-18T03:09:32.409Z,101185.31
2023-02-18T03:14:53.323Z,101174.63
2023-02-18T03:20:03.070Z,101155.31
2023-02-18T03:25:05.612Z,101158.28
2023-02-18T03:30:11.410Z,101161.75
2023-02-18T03:35:16.024Z,101159.13
2023-02-18T03:40:18.492Z,101155.66
2023-02-18T03:45:20.073Z,101144.84
2023-02-18T03:50:22.262Z,101138.94
2023-02-18T03:55:23.845Z,101135.34
2023-02-18T04:00:25.315Z,101123.00
2023-02-18T04:05:26.988Z,101128.72
2023-02-18T04:10:28.508Z,101124.47
2023-02-18T04:15:29.947Z,101109.34
2023-02-18T04:20:31.556Z,101099.47
2023-02-18T04:25:33.016Z,101112.03
2023-02-18T04:30:34.509Z,101122.78
2023-02-18T04:35:36.175Z,101124.69
2023-02-18T04:40:37.827Z,101118.44
2023-02-18T04:45:39.343Z,101106.13
2023-02-18T04:50:41.070Z,101098.31
2023-02-18T04:55:42.603Z,101103.47
2023-02-18T05:00:44.162Z,101110.78
2023-02-18T05:05:45.796Z,101104.22
2023-02-18T05:10:47.460Z,101093.22
2023-02-18T05:15:49.581Z,101095.56
2023-02-18T05:20:51.117Z,101090.69
2023-02-18T05:25:52.825Z,101096.50
2023-02-18T05:30:54.400Z,101093.34
2023-02-18T05:35:55.946Z,101082.38
2023-02-18T05:40:57.542Z,101073.72
2023-02-18T05:45:59.072Z,101069.47
2023-02-18T05:51:00.573Z,101064.09
2023-02-18T05:56:02.017Z,101067.25
2023-02-18T06:01:03.914Z,101062.28
2023-02-18T06:06:06.106Z,101066.91
2023-02-18T06:11:07.938Z,101072.41
2023-02-18T06:16:09.954Z,101063.53
2023-02-18T06:21:11.675Z,101069.56
2023-02-18T06:26:13.581Z,101058.38
2023-02-18T06:31:15.192Z,101046.97
2023-02-18T06:36:17.041Z,101062.63
2023-02-18T06:41:18.546Z,101068.09
2023-02-18T06:46:20.253Z,101052.59
2023-02-18T06:51:21.740Z,101044.16
2023-02-18T06:56:23.208Z,101050.16
2023-02-18T07:01:24.690Z,101042.97
2023-02-18T07:06:26.210Z,101048.81
2023-02-18T07:11:27.957Z,101024.53
2023-02-18T07:16:29.637Z,101036.34
2023-02-18T07:21:31.481Z,101033.16
2023-02-18T07:26:32.983Z,101035.59
2023-02-18T07:31:34.605Z,101032.38
2023-02-18T07:36:36.065Z,101020.66
2023-02-18T07:41:37.915Z,101003.19
2023-02-18T07:46:40.948Z,101003.50
2023-02-18T07:51:42.407Z,101016.06
2023-02-18T07:56:44.648Z,101005.28
2023-02-18T08:01:46.772Z,101011.81
2023-02-18T08:06:49.422Z,101020.56
2023-02-18T08:11:50.903Z,101016.88
2023-02-18T08:16:52.395Z,101016.97
2023-02-18T08:21:54.136Z,101027.31
2023-02-18T08:27:00.694Z,101048.25
2023-02-18T08:32:02.517Z,101062.28
2023-02-18T08:37:04.034Z,101046.63
2023-02-18T08:42:05.805Z,101048.97
2023-02-18T08:48:17.766Z,101041.34
2023-02-18T08:52:28.982Z,101043.44
2023-02-18T08:57:30.564Z,101053.00
2023-02-18T09:02:32.203Z,101070.56
2023-02-18T09:07:33.615Z,101060.00
2023-02-18T09:12:35.400Z,101050.63
2023-02-18T09:17:36.958Z,101049.00
2023-02-18T09:22:38.499Z,101053.34
2023-02-18T09:27:39.922Z,101065.94
2023-02-18T09:32:41.458Z,101071.31
2023-02-18T09:37:43.119Z,101085.38
2023-02-18T09:42:44.725Z,101071.84
2023-02-18T09:47:46.977Z,101089.47
2023-02-18T09:52:48.882Z,101086.09
2023-02-18T09:57:53.920Z,101085.78
2023-02-18T10:02:58.479Z,101083.75
2023-02-18T10:08:17.145Z,101064.91
2023-02-18T10:13:22.816Z,101064.19
2023-02-18T10:18:41.534Z,101056.06
2023-02-18T10:23:53.110Z,101057.97
2023-02-18T10:28:55.064Z,101057.25
2023-02-18T10:34:06.689Z,101032.66
2023-02-18T10:39:38.635Z,101039.19
2023-02-18T10:44:52.206Z,101037.47
2023-02-18T10:50:05.783Z,101018.66
2023-02-18T10:55:14.942Z,101026.91
2023-02-18T11:00:22.156Z,101029.75
2023-02-18T11:05:26.982Z,101020.13
2023-02-18T11:10:35.603Z,101013.88
2023-02-18T11:15:37.333Z,101018.09
2023-02-18T11:20:39.884Z,101016.78
2023-02-18T11:25:52.521Z,101013.88
2023-02-18T11:30:57.314Z,100989.03
2023-02-18T11:36:03.577Z,100973.59
2023-02-18T11:41:12.060Z,100961.13
2023-02-18T11:46:20.278Z,100934.59
2023-02-18T11:51:43.379Z,100927.28
2023-02-18T11:57:00.120Z,100917.03
2023-02-18T12:02:10.530Z,100902.03
2023-02-18T12:07:22.351Z,100889.81
2023-02-18T12:12:31.128Z,100882.59
2023-02-18T12:18:02.038Z,100905.53
2023-02-18T12:23:17.338Z,100875.50
2023-02-18T12:28:43.982Z,100878.53
2023-02-18T12:34:00.685Z,100884.66
2023-02-18T12:39:25.590Z,100902.47
2023-02-18T12:44:39.874Z,100879.81
2023-02-18T12:50:02.095Z,100913.28
2023-02-18T12:55:15.867Z,100896.03
2023-02-18T13:00:17.365Z,100904.50
2023-02-18T13:05:26.656Z,100893.47
2023-02-18T13:10:49.717Z,100914.22
2023-02-18T13:16:13.348Z,100924.25
2023-02-18T13:21:16.562Z,100925.09
2023-02-18T13:26:21.150Z,100923.97
2023-02-18T13:31:39.008Z,100920.78
2023-02-18T13:36:47.002Z,100924.88
2023-02-18T13:41:50.354Z,100942.66
2023-02-18T13:46:57.072Z,100932.78
2023-02-18T13:52:01.777Z,100943.38
2023-02-18T13:57:06.410Z,100947.94
2023-02-18T14:02:20.326Z,100954.91
2023-02-18T14:07:52.686Z,100946.38
2023-02-18T14:12:56.903Z,100948.44
2023-02-18T14:18:13.292Z,100967.31
2023-02-18T14:23:20.739Z,100960.56
2023-02-18T14:28:34.255Z,100954.06
2023-02-18T14:33:36.856Z,100964.66
2023-02-18T14:38:41.456Z,100974.06
2023-02-18T14:44:08.814Z,100970.19
2023-02-18T14:49:29.181Z,100965.88
2023-02-18T14:54:31.471Z,100973.22
2023-02-18T14:59:40.913Z,100966.59
2023-02-18T15:04:42.492Z,100968.38
2023-02-18T15:09:49.193Z,100960.59
2023-02-18T15:14:53.688Z,100971.50
2023-02-18T15:20:06.144Z,100959.63
2023-02-18T15:25:12.707Z,100956.94
2023-02-18T15:30:30.771Z,100951.19
2023-02-18T15:35:33.265Z,100954.81
2023-02-18T15:40:38.058Z,100959.00
2023-02-18T15:45:44.078Z,100959.47
2023-02-18T15:50:51.538Z,100956.94
2023-02-18T15:55:54.546Z,100960.78
2023-02-18T16:00:59.100Z,100964.78
2023-02-18T16:06:44.467Z,100957.06
2023-02-18T16:11:56.486Z,100963.69
2023-02-18T16:17:06.465Z,100954.53
2023-02-18T16:22:24.603Z,100962.84
2023-02-18T16:27:34.618Z,100969.78
2023-02-18T16:32:36.093Z,100961.13
2023-02-18T16:37:37.818Z,100953.91
2023-02-18T16:42:39.197Z,100974.31
2023-02-18T16:47:48.864Z,100972.88
2023-02-18T16:52:50.327Z,100965.91
2023-02-18T16:57:51.866Z,100983.78
2023-02-18T17:02:56.711Z,100982.66
2023-02-18T17:08:14.293Z,100982.66
2023-02-18T17:13:22.352Z,100980.03
2023-02-18T17:18:25.612Z,100993.22
2023-02-18T17:23:27.119Z,100976.66
2023-02-18T17:28:28.699Z,100983.13
2023-02-18T17:33:30.287Z,100982.41
2023-02-18T17:38:32.277Z,100994.69
2023-02-18T17:43:34.299Z,101003.84
2023-02-18T17:48:35.795Z,100998.75
2023-02-18T17:53:37.275Z,101016.00
2023-02-18T17:58:38.767Z,101014.72
2023-02-18T18:03:40.537Z,101020.84
2023-02-18T18:08:42.129Z,101018.94
2023-02-18T18:13:44.190Z,101026.00
2023-02-18T18:18:46.203Z,101026.22
2023-02-18T18:23:48.155Z,101022.22
2023-02-18T18:28:49.769Z,101018.84
2023-02-18T18:33:52.112Z,101012.72
2023-02-18T18:38:53.638Z,101000.25
2023-02-18T18:43:55.068Z,101013.38
2023-02-18T18:48:56.528Z,101001.94
2023-02-18T18:53:58.259Z,101019.28
2023-02-18T18:58:59.758Z,101014.22
2023-02-18T19:04:01.210Z,101017.06
2023-02-18T19:09:02.831Z,101012.72
2023-02-18T19:14:04.357Z,101020.38
2023-02-18T19:19:05.745Z,101021.31
2023-02-18T19:24:09.463Z,101019.75
2023-02-18T19:29:10.941Z,101014.38
2023-02-18T19:34:12.484Z,101005.25
2023-02-18T19:39:13.975Z,100999.00
2023-02-18T19:44:15.459Z,100997.13
2023-02-18T19:49:16.940Z,101005.53
2023-02-18T19:54:18.434Z,101001.22
2023-02-18T19:59:19.969Z,100992.56
2023-02-18T20:04:22.345Z,100994.78
2023-02-18T20:09:23.950Z,100998.44
2023-02-18T20:14:25.427Z,100991.69
2023-02-18T20:19:30.393Z,100990.88
2023-02-18T20:24:34.044Z,100982.00
2023-02-18T20:29:36.137Z,100981.28
2023-02-18T20:34:37.717Z,100990.50
2023-02-18T20:39:39.206Z,100982.44
2023-02-18T20:44:40.814Z,100973.19
2023-02-18T20:49:42.291Z,100966.00
2023-02-18T20:54:43.900Z,100957.78
2023-02-18T20:59:45.439Z,100961.81
2023-02-18T21:04:46.961Z,100960.72
2023-02-18T21:09:48.609Z,100974.81
2023-02-18T21:14:50.114Z,100958.81
2023-02-18T21:19:51.644Z,100962.22
2023-02-18T21:24:53.158Z,100952.78
2023-02-18T21:29:54.660Z,100949.13
2023-02-18T21:34:56.232Z,100949.13
2023-02-18T21:39:57.664Z,100932.00
2023-02-18T21:44:59.150Z,100926.28
2023-02-18T21:50:00.615Z,100925.31
2023-02-18T21:55:02.066Z,100922.66
2023-02-18T22:00:18.216Z,100923.00
2023-02-18T22:05:21.332Z,100925.66
2023-02-18T22:10:23.272Z,100913.31
2023-02-18T22:15:24.945Z,100903.50
2023-02-18T22:20:26.439Z,100903.94
2023-02-18T22:25:27.911Z,100898.16
2023-02-18T22:30:29.449Z,100894.69
2023-02-18T22:35:30.926Z,100892.63
2023-02-18T22:40:33.574Z,100881.13
2023-02-18T22:45:37.859Z,100876.34
2023-02-18T22:50:39.523Z,100890.06
2023-02-18T22:55:41.008Z,100882.97
2023-02-18T23:00:42.667Z,100875.38
2023-02-18T23:05:44.124Z,100887.97
2023-02-18T23:10:45.667Z,100882.69
2023-02-18T23:15:56.219Z,100880.50
2023-02-18T23:21:02.611Z,100861.09
2023-02-18T23:26:05.389Z,100854.94
2023-02-18T23:31:06.863Z,100850.66
2023-02-18T23:36:16.545Z,100865.06
2023-02-18T23:41:18.633Z,100852.69
2023-02-18T23:46:22.435Z,100832.78
2023-02-18T23:51:24.063Z,100833.47
2023-02-18T23:56:27.420Z,100823.75
